Fire Weather Observation
Issued by NWS Grand Junction, CO

Home | Current Version | Previous Version | Graphics & Text | Print | Product List | Glossary On
Versions: 1 2 3 4 5 6 7 8 9 10 11 12 13 14 15 16 17 18 19 20 21 22 23 24 25 26 27 28 29
000
SHUS65 KGJT 202024
FWOGJT

DAILY FIRE WEATHER OBSERVATION
NATIONAL WEATHER SERVICE GRAND JUNCTION CO
223 PM MDT THU JUL 20 2017

STATE OF THE WEATHER (W)               1
DRY BULB TEMPERATURE                   93   DEGREES FAHRENHEIT
RELATIVE HUMIDITY (RH)                 27   PERCENT
LIGHTNING ACTIVITY LEVEL
  (LAL - MIDNIGHT TO 2 PM)             5
WIND DIRECTION                         270  DEGREES (C IF CALM)
WIND SPEED                             8    MPH
MAX TEMP (2 PM - 2 PM)                 99   DEGREES FAHRENHEIT
MIN TEMP (2 PM - 2 PM)                 66   DEGREES FAHRENHEIT
MAX RH (2 PM - 2 PM)                   79   PERCENT
MIN RH (2 PM - 2 PM)                   20   PERCENT
PCPN DURATION                          0.9 HOURS
PCPN AMT (2 PM - 2 PM)                 0.16 INCHES
LAL (2 PM - 2 PM)                      5

$$

METAR KGJT 201953Z 28007KT 10SM CLR 34/12 A3012 RMK AO2 SLP114
      T03390122



USA.gov is the U.S. government's official web portal to all federal, state and local government web resources and services.